sensor_id;sensor_type;location;lat;lon;timestamp;pressure;altitude;pressure_sealevel;temperature;humidity
4981;BME280;2507;50.392;7.482;2023-03-19T00:02:06;100415.94;;;12.38;71.75
4981;BME280;2507;50.392;7.482;2023-03-19T00:04:31;100414.38;;;12.36;71.73
4981;BME280;2507;50.392;7.482;2023-03-19T00:06:57;100418.56;;;12.38;71.76
4981;BME280;2507;50.392;7.482;2023-03-19T00:09:22;100412.59;;;12.36;71.90
4981;BME280;2507;50.392;7.482;2023-03-19T00:11:47;100423.22;;;12.34;71.68
4981;BME280;2507;50.392;7.482;2023-03-19T00:14:14;100414.38;;;12.36;71.82
4981;BME280;2507;50.392;7.482;2023-03-19T00:16:40;100415.78;;;12.51;71.15
4981;BME280;2507;50.392;7.482;2023-03-19T00:19:05;100415.28;;;12.46;71.11
4981;BME280;2507;50.392;7.482;2023-03-19T00:21:31;100413.94;;;12.51;70.96
4981;BME280;2507;50.392;7.482;2023-03-19T00:23:57;100421.97;;;12.50;70.64
4981;BME280;2507;50.392;7.482;2023-03-19T00:26:31;100420.22;;;12.39;70.91
4981;BME280;2507;50.392;7.482;2023-03-19T00:28:57;100430.31;;;12.23;72.10
4981;BME280;2507;50.392;7.482;2023-03-19T00:31:24;100423.00;;;12.26;72.62
4981;BME280;2507;50.392;7.482;2023-03-19T00:33:50;100424.34;;;12.21;71.99
4981;BME280;2507;50.392;7.482;2023-03-19T00:36:16;100420.44;;;12.04;72.50
4981;BME280;2507;50.392;7.482;2023-03-19T00:38:42;100420.56;;;12.03;73.65
4981;BME280;2507;50.392;7.482;2023-03-19T00:41:09;100426.75;;;12.13;72.50
4981;BME280;2507;50.392;7.482;2023-03-19T00:43:35;100420.56;;;12.03;72.32
4981;BME280;2507;50.392;7.482;2023-03-19T00:46:00;100426.16;;;11.98;72.75
4981;BME280;2507;50.392;7.482;2023-03-19T00:48:26;100431.91;;;12.03;72.82
4981;BME280;2507;50.392;7.482;2023-03-19T00:50:52;100434.16;;;12.08;72.70
4981;BME280;2507;50.392;7.482;2023-03-19T00:53:17;100437.38;;;12.22;72.09
4981;BME280;2507;50.392;7.482;2023-03-19T00:55:42;100446.81;;;12.25;72.37
4981;BME280;2507;50.392;7.482;2023-03-19T00:58:08;100432.97;;;12.23;72.21
4981;BME280;2507;50.392;7.482;2023-03-19T01:00:34;100441.69;;;12.23;72.34
4981;BME280;2507;50.392;7.482;2023-03-19T01:03:00;100437.25;;;12.24;71.98
4981;BME280;2507;50.392;7.482;2023-03-19T01:05:26;100438.22;;;12.23;72.32
4981;BME280;2507;50.392;7.482;2023-03-19T01:07:51;100435.59;;;12.23;72.21
4981;BME280;2507;50.392;7.482;2023-03-19T01:10:21;100440.38;;;12.18;72.77
4981;BME280;2507;50.392;7.482;2023-03-19T01:12:48;100430.78;;;12.28;72.11
4981;BME280;2507;50.392;7.482;2023-03-19T01:15:13;100433.09;;;12.21;72.37
4981;BME280;2507;50.392;7.482;2023-03-19T01:17:39;100441.91;;;12.20;72.39
4981;BME280;2507;50.392;7.482;2023-03-19T01:20:05;100441.78;;;12.22;72.88
4981;BME280;2507;50.392;7.482;2023-03-19T01:22:37;100439.28;;;12.20;72.60
4981;BME280;2507;50.392;7.482;2023-03-19T01:25:03;100440.72;;;12.24;72.63
4981;BME280;2507;50.392;7.482;2023-03-19T01:27:29;100441.69;;;12.23;72.54
4981;BME280;2507;50.392;7.482;2023-03-19T01:29:55;100440.13;;;12.21;72.09
4981;BME280;2507;50.392;7.482;2023-03-19T01:32:20;100446.97;;;12.12;72.31
4981;BME280;2507;50.392;7.482;2023-03-19T01:34:47;100438.50;;;11.98;72.84
4981;BME280;2507;50.392;7.482;2023-03-19T01:37:12;100443.66;;;11.88;73.16
4981;BME280;2507;50.392;7.482;2023-03-19T01:39:37;100444.00;;;11.73;73.98
4981;BME280;2507;50.392;7.482;2023-03-19T01:42:03;100439.31;;;11.87;73.71
4981;BME280;2507;50.392;7.482;2023-03-19T01:44:36;100430.03;;;11.94;73.44
4981;BME280;2507;50.392;7.482;2023-03-19T01:47:06;100431.69;;;11.95;73.44
4981;BME280;2507;50.392;7.482;2023-03-19T01:49:34;100425.81;;;12.03;73.07
4981;BME280;2507;50.392;7.482;2023-03-19T01:52:02;100438.25;;;12.01;72.71
4981;BME280;2507;50.392;7.482;2023-03-19T01:54:29;100442.06;;;11.97;72.32
4981;BME280;2507;50.392;7.482;2023-03-19T01:57:02;100432.53;;;11.85;73.05
4981;BME280;2507;50.392;7.482;2023-03-19T01:59:32;100437.41;;;11.56;74.95
4981;BME280;2507;50.392;7.482;2023-03-19T02:02:03;100425.47;;;11.63;74.65
4981;BME280;2507;50.392;7.482;2023-03-19T02:04:33;100434.09;;;11.65;74.69
4981;BME280;2507;50.392;7.482;2023-03-19T02:07:01;100428.47;;;11.70;73.98
4981;BME280;2507;50.392;7.482;2023-03-19T02:09:28;100427.59;;;11.58;74.35
4981;BME280;2507;50.392;7.482;2023-03-19T02:11:55;100425.34;;;11.54;74.36
4981;BME280;2507;50.392;7.482;2023-03-19T02:14:20;100431.88;;;11.37;74.86
4981;BME280;2507;50.392;7.482;2023-03-19T02:16:47;100436.53;;;11.22;75.26
4981;BME280;2507;50.392;7.482;2023-03-19T02:19:18;100434.44;;;11.04;76.07
4981;BME280;2507;50.392;7.482;2023-03-19T02:21:46;100445.53;;;10.96;76.61
4981;BME280;2507;50.392;7.482;2023-03-19T02:24:16;100441.47;;;10.92;77.12
4981;BME280;2507;50.392;7.482;2023-03-19T02:26:44;100441.59;;;10.91;76.62
4981;BME280;2507;50.392;7.482;2023-03-19T02:29:10;100447.78;;;10.90;76.38
4981;BME280;2507;50.392;7.482;2023-03-19T02:31:36;100452.06;;;10.80;76.40
4981;BME280;2507;50.392;7.482;2023-03-19T02:34:04;100445.19;;;10.66;77.19
4981;BME280;2507;50.392;7.482;2023-03-19T02:36:51;100446.41;;;10.50;78.49
4981;BME280;2507;50.392;7.482;2023-03-19T02:39:27;100446.75;;;10.45;78.27
4981;BME280;2507;50.392;7.482;2023-03-19T02:41:55;100445.19;;;10.43;78.19
4981;BME280;2507;50.392;7.482;2023-03-19T02:44:22;100444.97;;;10.46;78.35
4981;BME280;2507;50.392;7.482;2023-03-19T02:46:47;100447.69;;;10.44;77.56
4981;BME280;2507;50.392;7.482;2023-03-19T02:49:13;100454.72;;;10.44;78.09
4981;BME280;2507;50.392;7.482;2023-03-19T02:51:39;100453.91;;;10.43;77.75
4981;BME280;2507;50.392;7.482;2023-03-19T02:54:06;100449.47;;;10.44;77.09
4981;BME280;2507;50.392;7.482;2023-03-19T02:56:31;100446.34;;;10.39;76.91
4981;BME280;2507;50.392;7.482;2023-03-19T02:58:56;100449.47;;;10.20;77.97
4981;BME280;2507;50.392;7.482;2023-03-19T03:01:21;100455.28;;;10.00;78.09
4981;BME280;2507;50.392;7.482;2023-03-19T03:03:47;100451.38;;;9.93;78.49
4981;BME280;2507;50.392;7.482;2023-03-19T03:06:12;100455.47;;;9.97;78.29
4981;BME280;2507;50.392;7.482;2023-03-19T03:08:38;100450.84;;;10.00;78.00
4981;BME280;2507;50.392;7.482;2023-03-19T03:11:03;100454.25;;;9.90;78.04
4981;BME280;2507;50.392;7.482;2023-03-19T03:13:28;100449.41;;;9.84;77.80
4981;BME280;2507;50.392;7.482;2023-03-19T03:15:54;100459.09;;;9.71;78.54
4981;BME280;2507;50.392;7.482;2023-03-19T03:18:19;100457.19;;;9.73;78.82
4981;BME280;2507;50.392;7.482;2023-03-19T03:20:44;100448.41;;;9.74;78.77
4981;BME280;2507;50.392;7.482;2023-03-19T03:23:10;100447.44;;;9.75;78.55
4981;BME280;2507;50.392;7.482;2023-03-19T03:25:36;100448.19;;;9.64;79.12
4981;BME280;2507;50.392;7.482;2023-03-19T03:28:01;100448.53;;;9.60;79.05
4981;BME280;2507;50.392;7.482;2023-03-19T03:30:27;100445.91;;;9.47;80.18
4981;BME280;2507;50.392;7.482;2023-03-19T03:32:52;100447.69;;;9.47;80.10
4981;BME280;2507;50.392;7.482;2023-03-19T03:35:17;100455.31;;;9.50;80.28
4981;BME280;2507;50.392;7.482;2023-03-19T03:37:47;100458.38;;;9.56;79.98
4981;BME280;2507;50.392;7.482;2023-03-19T03:40:13;100452.41;;;9.54;79.72
4981;BME280;2507;50.392;7.482;2023-03-19T03:42:40;100448.84;;;9.55;79.89
4981;BME280;2507;50.392;7.482;2023-03-19T03:45:06;100454.81;;;9.57;79.81
4981;BME280;2507;50.392;7.482;2023-03-19T03:47:32;100466.53;;;9.39;80.98
4981;BME280;2507;50.392;7.482;2023-03-19T03:49:57;100463.53;;;9.33;81.37
4981;BME280;2507;50.392;7.482;2023-03-19T03:52:22;100467.06;;;9.32;81.83
4981;BME280;2507;50.392;7.482;2023-03-19T03:54:48;100474.50;;;9.50;81.85
4981;BME280;2507;50.392;7.482;2023-03-19T03:57:13;100474.81;;;9.46;81.94
4981;BME280;2507;50.392;7.482;2023-03-19T03:59:38;100474.72;;;9.47;81.61
4981;BME280;2507;50.392;7.482;2023-03-19T04:02:03;100475.97;;;9.54;81.20
4981;BME280;2507;50.392;7.482;2023-03-19T04:04:30;100481.63;;;9.61;81.53
4981;BME280;2507;50.392;7.482;2023-03-19T04:06:55;100473.97;;;9.70;80.21
4981;BME280;2507;50.392;7.482;2023-03-19T04:09:21;100479.84;;;9.61;80.58
4981;BME280;2507;50.392;7.482;2023-03-19T04:11:47;100477.44;;;9.71;80.90
4981;BME280;2507;50.392;7.482;2023-03-19T04:14:13;100486.94;;;9.84;80.33
4981;BME280;2507;50.392;7.482;2023-03-19T04:16:38;100477.31;;;9.85;79.61
4981;BME280;2507;50.392;7.482;2023-03-19T04:19:04;100479.31;;;9.81;79.61
4981;BME280;2507;50.392;7.482;2023-03-19T04:21:29;100481.09;;;9.81;80.00
4981;BME280;2507;50.392;7.482;2023-03-19T04:23:55;100481.91;;;9.94;79.89
4981;BME280;2507;50.392;7.482;2023-03-19T04:26:20;100470.34;;;9.96;79.61
4981;BME280;2507;50.392;7.482;2023-03-19T04:28:46;100470.34;;;9.96;79.70
4981;BME280;2507;50.392;7.482;2023-03-19T04:31:11;100481.69;;;9.97;79.76
4981;BME280;2507;50.392;7.482;2023-03-19T04:33:37;100480.75;;;9.98;79.73
4981;BME280;2507;50.392;7.482;2023-03-19T04:36:03;100463.84;;;10.02;79.95
4981;BME280;2507;50.392;7.482;2023-03-19T04:38:28;100467.19;;;10.04;79.99
4981;BME280;2507;50.392;7.482;2023-03-19T04:40:55;100472.16;;;9.96;79.84
4981;BME280;2507;50.392;7.482;2023-03-19T04:43:23;100476.50;;;9.59;79.44
4981;BME280;2507;50.392;7.482;2023-03-19T04:45:49;100482.25;;;9.26;81.09
4981;BME280;2507;50.392;7.482;2023-03-19T04:48:15;100489.59;;;9.21;81.78
4981;BME280;2507;50.392;7.482;2023-03-19T04:50:43;100492.09;;;9.48;81.17
4981;BME280;2507;50.392;7.482;2023-03-19T04:53:09;100499.13;;;9.48;80.72
4981;BME280;2507;50.392;7.482;2023-03-19T04:55:34;100503.63;;;9.46;80.84
4981;BME280;2507;50.392;7.482;2023-03-19T04:58:00;100512.94;;;9.50;80.63
4981;BME280;2507;50.392;7.482;2023-03-19T05:00:25;100502.47;;;9.50;80.75
4981;BME280;2507;50.392;7.482;2023-03-19T05:02:52;100510.97;;;9.53;80.41
4981;BME280;2507;50.392;7.482;2023-03-19T05:05:17;100498.50;;;9.57;80.97
4981;BME280;2507;50.392;7.482;2023-03-19T05:07:42;100499.84;;;9.62;80.85
4981;BME280;2507;50.392;7.482;2023-03-19T05:10:08;100502.91;;;9.69;80.65
4981;BME280;2507;50.392;7.482;2023-03-19T05:12:34;100499.34;;;9.70;81.38
4981;BME280;2507;50.392;7.482;2023-03-19T05:15:01;100506.66;;;9.77;81.11
4981;BME280;2507;50.392;7.482;2023-03-19T05:17:29;100508.75;;;9.85;80.75
4981;BME280;2507;50.392;7.482;2023-03-19T05:19:54;100510.22;;;9.89;81.13
4981;BME280;2507;50.392;7.482;2023-03-19T05:22:20;100522.88;;;10.07;80.19
4981;BME280;2507;50.392;7.482;2023-03-19T05:24:45;100512.84;;;10.14;80.05
4981;BME280;2507;50.392;7.482;2023-03-19T05:27:11;100523.19;;;10.28;79.30
4981;BME280;2507;50.392;7.482;2023-03-19T05:29:37;100523.09;;;10.17;79.48
4981;BME280;2507;50.392;7.482;2023-03-19T05:32:03;100514.59;;;10.26;79.82
4981;BME280;2507;50.392;7.482;2023-03-19T05:34:29;100518.59;;;10.19;79.59
4981;BME280;2507;50.392;7.482;2023-03-19T05:36:54;100517.88;;;10.17;79.78
4981;BME280;2507;50.392;7.482;2023-03-19T05:39:20;100509.88;;;10.18;80.17
4981;BME280;2507;50.392;7.482;2023-03-19T05:41:45;100519.25;;;10.10;80.57
4981;BME280;2507;50.392;7.482;2023-03-19T05:44:11;100523.31;;;10.01;80.50
4981;BME280;2507;50.392;7.482;2023-03-19T05:46:36;100529.19;;;9.92;80.56
4981;BME280;2507;50.392;7.482;2023-03-19T05:49:03;100532.53;;;9.82;81.11
4981;BME280;2507;50.392;7.482;2023-03-19T05:51:29;100532.25;;;9.74;81.94
4981;BME280;2507;50.392;7.482;2023-03-19T05:53:54;100534.84;;;9.99;81.08
4981;BME280;2507;50.392;7.482;2023-03-19T05:56:19;100548.28;;;10.07;80.09
4981;BME280;2507;50.392;7.482;2023-03-19T05:58:45;100542.94;;;10.21;79.79
4981;BME280;2507;50.392;7.482;2023-03-19T06:01:10;100532.03;;;10.27;78.74
4981;BME280;2507;50.392;7.482;2023-03-19T06:03:36;100536.50;;;10.38;78.16
4981;BME280;2507;50.392;7.482;2023-03-19T06:06:01;100542.25;;;10.43;78.06
4981;BME280;2507;50.392;7.482;2023-03-19T06:08:26;100542.00;;;10.46;78.24
4981;BME280;2507;50.392;7.482;2023-03-19T06:10:52;100533.34;;;10.45;78.36
4981;BME280;2507;50.392;7.482;2023-03-19T06:13:17;100552.47;;;10.58;78.86
4981;BME280;2507;50.392;7.482;2023-03-19T06:15:42;100543.66;;;10.59;78.45
4981;BME280;2507;50.392;7.482;2023-03-19T06:18:08;100551.66;;;10.58;78.41
4981;BME280;2507;50.392;7.482;2023-03-19T06:20:33;100547.91;;;10.73;78.68
4981;BME280;2507;50.392;7.482;2023-03-19T06:22:58;100557.38;;;10.99;78.50
4981;BME280;2507;50.392;7.482;2023-03-19T06:25:23;100545.53;;;11.28;76.09
4981;BME280;2507;50.392;7.482;2023-03-19T06:27:49;100546.78;;;11.11;75.26
4981;BME280;2507;50.392;7.482;2023-03-19T06:30:14;100550.63;;;11.18;75.50
4981;BME280;2507;50.392;7.482;2023-03-19T06:32:40;100552.03;;;11.11;75.87
4981;BME280;2507;50.392;7.482;2023-03-19T06:35:06;100552.78;;;11.13;76.22
4981;BME280;2507;50.392;7.482;2023-03-19T06:37:33;100550.81;;;11.04;76.88
4981;BME280;2507;50.392;7.482;2023-03-19T06:39:58;100558.16;;;10.88;76.78
4981;BME280;2507;50.392;7.482;2023-03-19T06:42:23;100550.81;;;10.81;77.30
4981;BME280;2507;50.392;7.482;2023-03-19T06:44:49;100562.44;;;10.89;78.10
4981;BME280;2507;50.392;7.482;2023-03-19T06:47:14;100550.78;;;10.93;76.78
4981;BME280;2507;50.392;7.482;2023-03-19T06:49:40;100558.81;;;10.79;76.70
4981;BME280;2507;50.392;7.482;2023-03-19T06:52:06;100569.09;;;10.82;77.77
4981;BME280;2507;50.392;7.482;2023-03-19T06:54:31;100552.72;;;11.02;76.88
4981;BME280;2507;50.392;7.482;2023-03-19T06:56:57;100562.63;;;10.99;77.06
4981;BME280;2507;50.392;7.482;2023-03-19T06:59:23;100560.88;;;11.10;76.79
4981;BME280;2507;50.392;7.482;2023-03-19T07:01:48;100559.00;;;11.12;76.95
4981;BME280;2507;50.392;7.482;2023-03-19T07:04:13;100562.16;;;11.28;76.81
4981;BME280;2507;50.392;7.482;2023-03-19T07:06:38;100567.94;;;11.45;76.18
4981;BME280;2507;50.392;7.482;2023-03-19T07:09:04;100576.66;;;11.45;76.30
4981;BME280;2507;50.392;7.482;2023-03-19T07:11:29;100580.47;;;11.41;76.05
4981;BME280;2507;50.392;7.482;2023-03-19T07:13:55;100590.84;;;11.43;75.01
4981;BME280;2507;50.392;7.482;2023-03-19T07:16:20;100577.47;;;11.11;76.37
4981;BME280;2507;50.392;7.482;2023-03-19T07:18:45;100587.28;;;10.96;77.80
4981;BME280;2507;50.392;7.482;2023-03-19T07:21:10;100580.88;;;11.24;77.22
4981;BME280;2507;50.392;7.482;2023-03-19T07:23:36;100585.31;;;11.34;76.95
4981;BME280;2507;50.392;7.482;2023-03-19T07:26:01;100587.91;;;11.47;76.12
4981;BME280;2507;50.392;7.482;2023-03-19T07:28:27;100588.09;;;11.44;76.05
4981;BME280;2507;50.392;7.482;2023-03-19T07:30:53;100587.25;;;11.32;76.61
4981;BME280;2507;50.392;7.482;2023-03-19T07:33:19;100594.16;;;11.33;77.82
4981;BME280;2507;50.392;7.482;2023-03-19T07:35:45;100589.53;;;11.37;76.95
4981;BME280;2507;50.392;7.482;2023-03-19T07:38:10;100586.28;;;11.33;77.08
4981;BME280;2507;50.392;7.482;2023-03-19T07:40:36;100598.00;;;11.41;77.06
4981;BME280;2507;50.392;7.482;2023-03-19T07:43:02;100598.03;;;11.75;77.35
4981;BME280;2507;50.392;7.482;2023-03-19T07:45:28;100602.97;;;12.02;75.72
4981;BME280;2507;50.392;7.482;2023-03-19T07:47:53;100602.97;;;12.13;75.33
4981;BME280;2507;50.392;7.482;2023-03-19T07:50:19;100601.34;;;12.45;75.32
4981;BME280;2507;50.392;7.482;2023-03-19T07:52:45;100600.78;;;12.84;74.12
4981;BME280;2507;50.392;7.482;2023-03-19T07:55:12;100598.59;;;13.00;72.93
4981;BME280;2507;50.392;7.482;2023-03-19T07:57:37;100593.94;;;12.93;72.34
4981;BME280;2507;50.392;7.482;2023-03-19T08:00:03;100597.44;;;13.04;72.90
4981;BME280;2507;50.392;7.482;2023-03-19T08:02:29;100603.47;;;13.48;72.23
4981;BME280;2507;50.392;7.482;2023-03-19T08:04:54;100623.25;;;13.74;72.33
4981;BME280;2507;50.392;7.482;2023-03-19T08:07:19;100603.34;;;14.11;71.48
4981;BME280;2507;50.392;7.482;2023-03-19T08:09:45;100599.69;;;14.53;69.64
4981;BME280;2507;50.392;7.482;2023-03-19T08:12:11;100606.00;;;14.71;69.19
4981;BME280;2507;50.392;7.482;2023-03-19T08:14:36;100601.78;;;15.08;68.11
4981;BME280;2507;50.392;7.482;2023-03-19T08:17:01;100599.56;;;15.32;67.44
4981;BME280;2507;50.392;7.482;2023-03-19T08:19:27;100599.28;;;15.26;66.65
4981;BME280;2507;50.392;7.482;2023-03-19T08:21:52;100601.03;;;14.97;67.79
4981;BME280;2507;50.392;7.482;2023-03-19T08:24:17;100601.75;;;14.99;68.43
4981;BME280;2507;50.392;7.482;2023-03-19T08:26:43;100603.44;;;15.00;68.24
4981;BME280;2507;50.392;7.482;2023-03-19T08:29:09;100606.53;;;15.14;68.04
4981;BME280;2507;50.392;7.482;2023-03-19T08:31:35;100604.31;;;15.29;67.89
4981;BME280;2507;50.392;7.482;2023-03-19T08:34:00;100600.69;;;15.30;67.59
4981;BME280;2507;50.392;7.482;2023-03-19T08:36:27;100605.53;;;15.34;67.55
4981;BME280;2507;50.392;7.482;2023-03-19T08:38:53;100608.06;;;15.36;67.41
4981;BME280;2507;50.392;7.482;2023-03-19T08:41:21;100601.28;;;15.43;66.70
4981;BME280;2507;50.392;7.482;2023-03-19T08:43:47;100608.78;;;15.67;66.44
4981;BME280;2507;50.392;7.482;2023-03-19T08:46:13;100607.22;;;15.83;65.08
4981;BME280;2507;50.392;7.482;2023-03-19T08:48:38;100611.22;;;15.87;64.79
4981;BME280;2507;50.392;7.482;2023-03-19T08:51:04;100615.97;;;15.93;64.59
4981;BME280;2507;50.392;7.482;2023-03-19T08:53:30;100609.28;;;15.89;65.12
4981;BME280;2507;50.392;7.482;2023-03-19T08:55:59;100607.50;;;15.80;64.17
4981;BME280;2507;50.392;7.482;2023-03-19T08:58:26;100617.81;;;15.64;64.45
4981;BME280;2507;50.392;7.482;2023-03-19T09:00:51;100615.16;;;15.64;63.86
4981;BME280;2507;50.392;7.482;2023-03-19T09:03:17;100614.31;;;15.64;63.82
4981;BME280;2507;50.392;7.482;2023-03-19T09:05:43;100633.44;;;15.67;64.51
4981;BME280;2507;50.392;7.482;2023-03-19T09:08:08;100628.00;;;15.69;64.00
4981;BME280;2507;50.392;7.482;2023-03-19T09:10:34;100628.28;;;15.47;65.79
4981;BME280;2507;50.392;7.482;2023-03-19T09:12:59;100645.19;;;15.34;66.11
4981;BME280;2507;50.392;7.482;2023-03-19T09:15:25;100632.69;;;15.27;66.58
4981;BME280;2507;50.392;7.482;2023-03-19T09:17:51;100631.97;;;15.15;67.14
4981;BME280;2507;50.392;7.482;2023-03-19T09:20:16;100639.06;;;15.24;66.60
4981;BME280;2507;50.392;7.482;2023-03-19T09:22:42;100627.38;;;15.17;67.82
4981;BME280;2507;50.392;7.482;2023-03-19T09:25:07;100640.44;;;15.09;68.13
4981;BME280;2507;50.392;7.482;2023-03-19T09:27:33;100633.25;;;15.30;67.93
4981;BME280;2507;50.392;7.482;2023-03-19T09:29:58;100640.38;;;15.59;67.43
4981;BME280;2507;50.392;7.482;2023-03-19T09:32:23;100637.31;;;15.63;67.95
4981;BME280;2507;50.392;7.482;2023-03-19T09:34:49;100639.94;;;15.82;67.05
4981;BME280;2507;50.392;7.482;2023-03-19T09:37:14;100642.19;;;15.87;66.33
4981;BME280;2507;50.392;7.482;2023-03-19T09:39:40;100640.09;;;15.71;66.39
4981;BME280;2507;50.392;7.482;2023-03-19T09:42:36;100640.22;;;15.79;66.53
4981;BME280;2507;50.392;7.482;2023-03-19T09:45:14;100645.13;;;15.65;66.91
4981;BME280;2507;50.392;7.482;2023-03-19T09:47:40;100640.22;;;15.60;67.42
4981;BME280;2507;50.392;7.482;2023-03-19T09:50:13;100645.81;;;15.76;66.65
4981;BME280;2507;50.392;7.482;2023-03-19T09:52:45;100644.41;;;15.72;67.40
4981;BME280;2507;50.392;7.482;2023-03-19T09:57:43;100645.91;;;15.36;68.60
4981;BME280;2507;50.392;7.482;2023-03-19T10:00:25;100638.94;;;15.35;68.73
4981;BME280;2507;50.392;7.482;2023-03-19T10:11:36;100643.28;;;14.87;70.04
4981;BME280;2507;50.392;7.482;2023-03-19T10:17:01;100650.41;;;14.47;72.10
4981;BME280;2507;50.392;7.482;2023-03-19T10:20:00;100650.34;;;14.38;72.48
4981;BME280;2507;50.392;7.482;2023-03-19T10:22:32;100660.38;;;14.23;73.26
4981;BME280;2507;50.392;7.482;2023-03-19T10:25:02;100647.38;;;14.31;73.20
4981;BME280;2507;50.392;7.482;2023-03-19T10:27:27;100650.03;;;14.31;72.66
4981;BME280;2507;50.392;7.482;2023-03-19T10:29:54;100650.22;;;14.39;73.28
4981;BME280;2507;50.392;7.482;2023-03-19T10:32:42;100653.16;;;14.46;73.49
4981;BME280;2507;50.392;7.482;2023-03-19T10:35:19;100652.31;;;14.75;72.69
4981;BME280;2507;50.392;7.482;2023-03-19T10:37:47;100660.13;;;14.86;71.88
4981;BME280;2507;50.392;7.482;2023-03-19T10:40:21;100659.25;;;15.16;71.11
4981;BME280;2507;50.392;7.482;2023-03-19T10:43:00;100660.56;;;15.50;70.55
4981;BME280;2507;50.392;7.482;2023-03-19T10:45:33;100663.34;;;15.68;68.84
4981;BME280;2507;50.392;7.482;2023-03-19T10:48:00;100665.41;;;15.93;68.40
4981;BME280;2507;50.392;7.482;2023-03-19T10:50:33;100674.19;;;15.93;68.33
4981;BME280;2507;50.392;7.482;2023-03-19T10:55:45;100667.72;;;16.34;67.66
4981;BME280;2507;50.392;7.482;2023-03-19T10:58:17;100670.00;;;16.19;67.00
4981;BME280;2507;50.392;7.482;2023-03-19T11:00:48;100668.97;;;16.30;67.25
4981;BME280;2507;50.392;7.482;2023-03-19T11:08:54;100676.22;;;16.28;67.25
4981;BME280;2507;50.392;7.482;2023-03-19T11:13:57;100688.47;;;16.38;65.87
4981;BME280;2507;50.392;7.482;2023-03-19T11:16:22;100692.53;;;16.52;66.58
4981;BME280;2507;50.392;7.482;2023-03-19T11:18:48;100685.50;;;16.61;65.83
4981;BME280;2507;50.392;7.482;2023-03-19T11:21:34;100691.81;;;16.60;65.44
4981;BME280;2507;50.392;7.482;2023-03-19T11:24:02;100688.19;;;16.51;66.35
4981;BME280;2507;50.392;7.482;2023-03-19T11:26:31;100690.56;;;16.35;66.11
4981;BME280;2507;50.392;7.482;2023-03-19T11:29:02;100686.28;;;16.34;65.71
4981;BME280;2507;50.392;7.482;2023-03-19T11:31:40;100682.41;;;16.09;66.39
4981;BME280;2507;50.392;7.482;2023-03-19T11:39:47;100683.25;;;15.62;68.10
4981;BME280;2507;50.392;7.482;2023-03-19T11:42:55;100680.47;;;15.64;68.20
4981;BME280;2507;50.392;7.482;2023-03-19T11:45:30;100686.59;;;15.55;69.67
4981;BME280;2507;50.392;7.482;2023-03-19T11:48:14;100680.06;;;15.78;67.80
4981;BME280;2507;50.392;7.482;2023-03-19T11:50:52;100683.41;;;15.61;68.56
4981;BME280;2507;50.392;7.482;2023-03-19T12:07:50;100680.34;;;15.94;69.13
4981;BME280;2507;50.392;7.482;2023-03-19T12:10:27;100675.66;;;16.44;67.69
4981;BME280;2507;50.392;7.482;2023-03-19T12:13:22;100677.00;;;16.67;66.94
4981;BME280;2507;50.392;7.482;2023-03-19T12:16:23;100676.06;;;16.39;66.22
4981;BME280;2507;50.392;7.482;2023-03-19T12:21:56;100670.28;;;16.07;67.61
4981;BME280;2507;50.392;7.482;2023-03-19T12:27:39;100660.41;;;15.99;64.80
4981;BME280;2507;50.392;7.482;2023-03-19T12:33:06;100662.75;;;16.02;65.99
4981;BME280;2507;50.392;7.482;2023-03-19T12:35:38;100669.44;;;16.16;66.48
4981;BME280;2507;50.392;7.482;2023-03-19T12:40:49;100671.84;;;16.46;64.83
4981;BME280;2507;50.392;7.482;2023-03-19T12:43:17;100668.66;;;16.62;64.67
4981;BME280;2507;50.392;7.482;2023-03-19T12:45:50;100672.13;;;16.89;64.82
4981;BME280;2507;50.392;7.482;2023-03-19T12:48:29;100661.22;;;17.19;63.18
4981;BME280;2507;50.392;7.482;2023-03-19T12:51:02;100656.00;;;17.27;62.47
4981;BME280;2507;50.392;7.482;2023-03-19T12:53:45;100660.28;;;17.38;62.22
4981;BME280;2507;50.392;7.482;2023-03-19T12:56:50;100658.25;;;17.85;61.81
4981;BME280;2507;50.392;7.482;2023-03-19T13:02:25;100655.84;;;18.43;60.70
4981;BME280;2507;50.392;7.482;2023-03-19T13:04:55;100661.44;;;18.40;60.28
4981;BME280;2507;50.392;7.482;2023-03-19T13:07:39;100660.50;;;18.23;59.43
4981;BME280;2507;50.392;7.482;2023-03-19T13:10:28;100657.69;;;18.24;58.83
4981;BME280;2507;50.392;7.482;2023-03-19T13:12:55;100648.91;;;17.81;59.55
4981;BME280;2507;50.392;7.482;2023-03-19T13:20:40;100644.44;;;17.81;61.08
4981;BME280;2507;50.392;7.482;2023-03-19T13:23:16;100639.09;;;17.99;60.18
4981;BME280;2507;50.392;7.482;2023-03-19T13:25:45;100642.50;;;17.91;60.08
4981;BME280;2507;50.392;7.482;2023-03-19T13:28:25;100645.69;;;17.95;60.29
4981;BME280;2507;50.392;7.482;2023-03-19T13:31:00;100644.50;;;18.15;60.41
4981;BME280;2507;50.392;7.482;2023-03-19T13:33:26;100640.09;;;18.49;59.42
4981;BME280;2507;50.392;7.482;2023-03-19T13:35:54;100644.94;;;18.28;58.58
4981;BME280;2507;50.392;7.482;2023-03-19T13:38:41;100652.19;;;18.18;58.61
4981;BME280;2507;50.392;7.482;2023-03-19T13:44:32;100635.16;;;18.28;57.70
4981;BME280;2507;50.392;7.482;2023-03-19T13:47:26;100633.72;;;18.16;59.08
4981;BME280;2507;50.392;7.482;2023-03-19T13:50:06;100631.28;;;18.23;59.22
4981;BME280;2507;50.392;7.482;2023-03-19T13:52:49;100626.84;;;18.06;58.95
4981;BME280;2507;50.392;7.482;2023-03-19T13:58:04;100621.13;;;17.40;59.34
4981;BME280;2507;50.392;7.482;2023-03-19T14:03:22;100617.03;;;17.10;60.10
4981;BME280;2507;50.392;7.482;2023-03-19T14:05:50;100610.84;;;17.19;59.43
4981;BME280;2507;50.392;7.482;2023-03-19T14:08:26;100624.84;;;17.12;60.11
4981;BME280;2507;50.392;7.482;2023-03-19T14:10:55;100610.16;;;17.17;60.30
4981;BME280;2507;50.392;7.482;2023-03-19T14:13:36;100612.28;;;17.31;59.07
4981;BME280;2507;50.392;7.482;2023-03-19T14:16:20;100613.50;;;17.19;60.13
4981;BME280;2507;50.392;7.482;2023-03-19T14:18:47;100611.16;;;17.34;59.23
4981;BME280;2507;50.392;7.482;2023-03-19T14:21:15;100600.31;;;17.63;59.20
4981;BME280;2507;50.392;7.482;2023-03-19T14:23:51;100604.19;;;17.68;59.50
4981;BME280;2507;50.392;7.482;2023-03-19T14:26:22;100605.38;;;17.74;59.14
4981;BME280;2507;50.392;7.482;2023-03-19T14:29:00;100599.31;;;17.64;58.16
4981;BME280;2507;50.392;7.482;2023-03-19T14:31:44;100601.16;;;17.63;56.92
4981;BME280;2507;50.392;7.482;2023-03-19T14:37:33;100603.34;;;17.32;56.68